Time;durP1;ratioP1;P1;durP2;ratioP2;P2;SDS_P1;SDS_P2;PMS_P1;PMS_P2;Temp;Humidity;BMP_temperature;BMP_pressure;BME280_temperature;BME280_humidity;BME280_pressure;Samples;Min_cycle;Max_cycle;Signal;HPM_P1;HPM_P2
2022/09/02 00:01:01;;;;;;;1.17;1.08;;;18.00;89.00;;;;;;5050610;28;24065;-70
2022/09/02 00:03:33;;;;;;;1.77;1.20;;;18.00;90.10;;;;;;5060601;28;25051;-71
2022/09/02 00:05:59;;;;;;;1.45;0.70;;;17.90;91.10;;;;;;5055885;28;25090;-73
2022/09/02 00:08:26;;;;;;;3.10;0.90;;;18.00;92.20;;;;;;5063640;28;25076;-70
2022/09/02 00:10:51;;;;;;;4.05;0.95;;;18.00;91.90;;;;;;5056538;28;25065;-70
2022/09/02 00:13:18;;;;;;;3.53;1.02;;;18.00;92.00;;;;;;5072600;28;25074;-72
2022/09/02 00:15:45;;;;;;;1.50;0.98;;;17.90;93.40;;;;;;5074694;28;25169;-71
2022/09/02 00:18:11;;;;;;;3.75;0.90;;;17.90;94.50;;;;;;5069182;28;25081;-70
2022/09/02 00:20:39;;;;;;;4.80;1.38;;;17.90;95.20;;;;;;5055710;28;25072;-70
2022/09/02 00:23:04;;;;;;;4.70;0.85;;;17.90;95.00;;;;;;5059640;28;25052;-71
2022/09/02 00:25:31;;;;;;;1.02;0.70;;;17.90;94.10;;;;;;5057947;28;25073;-73
2022/09/02 00:27:56;;;;;;;3.30;1.05;;;17.80;95.20;;;;;;5062570;28;25064;-71
2022/09/02 00:30:22;;;;;;;1.02;0.77;;;17.80;96.60;;;;;;5059804;28;25068;-72
2022/09/02 00:32:47;;;;;;;3.42;0.90;;;17.80;97.40;;;;;;5056903;28;25088;-70
2022/09/02 00:35:13;;;;;;;2.85;0.82;;;17.70;98.10;;;;;;5062294;28;25151;-69
2022/09/02 00:37:39;;;;;;;1.48;1.00;;;17.80;99.00;;;;;;5065418;28;25130;-69
2022/09/02 00:40:06;;;;;;;1.48;1.05;;;17.70;98.90;;;;;;5074492;28;25144;-73
2022/09/02 00:42:33;;;;;;;2.65;2.17;;;17.70;99.90;;;;;;5079870;28;25071;-71
2022/09/02 00:45:01;;;;;;;3.40;0.65;;;17.80;99.90;;;;;;5071964;28;25161;-72
2022/09/02 00:47:30;;;;;;;0.93;0.73;;;17.70;99.90;;;;;;5072274;28;25095;-71
2022/09/02 00:49:57;;;;;;;0.85;0.80;;;17.80;99.90;;;;;;5058423;28;25090;-71
2022/09/02 00:52:28;;;;;;;4.13;0.90;;;17.70;99.90;;;;;;5054135;28;25051;-69
2022/09/02 00:55:09;;;;;;;0.95;0.60;;;17.70;99.90;;;;;;5057774;28;25074;-72
2022/09/02 00:57:48;;;;;;;1.02;0.73;;;17.70;99.90;;;;;;5056478;28;25061;-72
2022/09/02 01:00:24;;;;;;;2.88;0.77;;;17.70;99.90;;;;;;5052157;28;25068;-72
2022/09/02 01:02:56;;;;;;;1.55;0.57;;;17.70;99.90;;;;;;5072996;28;25113;-72
2022/09/02 01:05:25;;;;;;;3.08;0.93;;;17.80;99.90;;;;;;5065337;28;25061;-73
2022/09/02 01:07:53;;;;;;;1.63;0.77;;;17.70;99.90;;;;;;5054395;28;25072;-72
2022/09/02 01:10:28;;;;;;;0.73;0.70;;;17.70;99.90;;;;;;5051789;28;25043;-73
2022/09/02 01:12:56;;;;;;;4.70;1.55;;;17.70;99.90;;;;;;5056350;28;25048;-72
2022/09/02 01:15:23;;;;;;;2.92;1.00;;;17.70;99.90;;;;;;5066241;28;25163;-71
2022/09/02 01:17:50;;;;;;;4.35;0.80;;;17.70;99.90;;;;;;5056279;28;25070;-70
2022/09/02 01:20:20;;;;;;;2.63;0.90;;;17.60;99.90;;;;;;5058786;28;25052;-72
2022/09/02 01:22:46;;;;;;;1.90;1.00;;;17.60;99.90;;;;;;5060206;28;25082;-71
2022/09/02 01:25:17;;;;;;;2.03;0.80;;;17.60;99.90;;;;;;5047914;28;25060;-70
2022/09/02 01:27:43;;;;;;;2.38;0.80;;;17.60;99.90;;;;;;5057728;28;25126;-72
2022/09/02 01:30:12;;;;;;;2.85;0.85;;;17.60;99.90;;;;;;5056287;28;25051;-72
2022/09/02 01:32:38;;;;;;;1.58;0.68;;;17.60;99.90;;;;;;5059529;28;25068;-72
2022/09/02 01:35:04;;;;;;;4.85;0.90;;;17.60;99.90;;;;;;5068228;28;25108;-72
2022/09/02 01:37:31;;;;;;;1.35;1.02;;;17.60;99.90;;;;;;5059245;28;25075;-71
2022/09/02 01:39:56;;;;;;;1.55;0.65;;;17.60;99.90;;;;;;5060279;28;25110;-71
2022/09/02 01:42:22;;;;;;;0.75;0.75;;;17.50;99.90;;;;;;5055902;28;25102;-72
2022/09/02 01:44:48;;;;;;;2.25;1.10;;;17.50;99.90;;;;;;5055270;28;25066;-71
2022/09/02 01:47:18;;;;;;;3.53;0.98;;;17.50;99.90;;;;;;5062751;28;25057;-71
2022/09/02 01:49:45;;;;;;;1.33;0.68;;;17.50;99.90;;;;;;5069679;28;25049;-72
2022/09/02 01:52:11;;;;;;;1.70;0.90;;;17.40;99.90;;;;;;5060196;28;25061;-72
2022/09/02 01:54:39;;;;;;;3.30;1.20;;;17.40;99.90;;;;;;5064894;28;25051;-73
2022/09/02 01:57:04;;;;;;;1.15;0.90;;;17.40;99.90;;;;;;5060172;28;25052;-70
2022/09/02 01:59:30;;;;;;;5.75;0.88;;;17.40;99.90;;;;;;5067198;28;25067;-70
2022/09/02 02:01:56;;;;;;;1.38;0.90;;;17.40;99.90;;;;;;5058555;28;25068;-71
2022/09/02 02:04:23;;;;;;;2.10;0.82;;;17.40;99.90;;;;;;5057260;28;25114;-71
2022/09/02 02:06:49;;;;;;;4.22;0.98;;;17.30;99.90;;;;;;5065887;28;25129;-70
2022/09/02 02:09:16;;;;;;;2.67;0.80;;;17.30;99.90;;;;;;5063524;28;25064;-70
2022/09/02 02:11:42;;;;;;;4.75;0.68;;;17.30;99.90;;;;;;5059134;28;25083;-73
2022/09/02 02:14:08;;;;;;;5.60;2.80;;;17.20;99.90;;;;;;5057981;28;25167;-71
2022/09/02 02:16:37;;;;;;;2.25;1.30;;;17.20;99.90;;;;;;5062787;28;25055;-74
2022/09/02 02:19:04;;;;;;;3.22;1.35;;;17.20;99.90;;;;;;5050363;28;25089;-69
2022/09/02 02:21:30;;;;;;;1.33;0.90;;;17.10;99.90;;;;;;5057998;28;25103;-72
2022/09/02 02:23:59;;;;;;;2.15;1.10;;;17.10;99.90;;;;;;5054586;28;25097;-71
2022/09/02 02:26:24;;;;;;;2.05;0.90;;;17.10;99.90;;;;;;5054808;28;25061;-70
2022/09/02 02:28:50;;;;;;;3.92;1.20;;;17.20;99.90;;;;;;5057765;28;25082;-71
2022/09/02 02:31:15;;;;;;;1.52;1.17;;;17.10;99.90;;;;;;5063715;28;25082;-71
2022/09/02 02:33:41;;;;;;;7.82;1.27;;;17.20;99.90;;;;;;5061081;28;25069;-71
2022/09/02 02:36:07;;;;;;;0.90;0.90;;;17.20;99.90;;;;;;5058192;28;25073;-71
2022/09/02 02:38:35;;;;;;;1.48;0.82;;;17.10;99.90;;;;;;5053193;28;25080;-73
2022/09/02 02:41:03;;;;;;;2.33;1.67;;;17.10;99.90;;;;;;5065410;28;25067;-71
2022/09/02 02:43:29;;;;;;;1.52;0.90;;;17.00;99.90;;;;;;5055095;28;25065;-73
2022/09/02 02:45:55;;;;;;;2.42;0.85;;;17.00;99.90;;;;;;5074475;28;25132;-72
2022/09/02 02:48:21;;;;;;;4.00;1.05;;;17.00;99.90;;;;;;5072108;28;25067;-72
2022/09/02 02:50:46;;;;;;;3.75;1.58;;;17.00;99.90;;;;;;5069416;28;25058;-71
2022/09/02 02:53:12;;;;;;;3.47;1.00;;;16.90;99.90;;;;;;5060845;28;25098;-72
2022/09/02 02:55:38;;;;;;;2.00;0.88;;;17.00;99.90;;;;;;5061438;28;25069;-70
2022/09/02 02:58:05;;;;;;;0.95;0.70;;;17.00;99.90;;;;;;5051504;28;25084;-71
2022/09/02 03:00:32;;;;;;;1.35;1.00;;;16.90;99.90;;;;;;5058830;28;25163;-71
2022/09/02 03:03:00;;;;;;;3.85;1.42;;;16.90;99.90;;;;;;5064404;28;25114;-73
2022/09/02 03:05:26;;;;;;;1.63;1.10;;;16.80;99.90;;;;;;5055586;28;25102;-71
2022/09/02 03:07:52;;;;;;;2.22;1.08;;;16.80;99.90;;;;;;5047773;28;25062;-72
2022/09/02 03:10:19;;;;;;;3.55;1.20;;;16.80;99.90;;;;;;5056939;28;25100;-70
2022/09/02 03:12:46;;;;;;;2.17;0.75;;;16.80;99.90;;;;;;5059636;28;25080;-71
2022/09/02 03:15:15;;;;;;;2.63;1.30;;;16.80;99.90;;;;;;5050262;28;25070;-72
2022/09/02 03:17:41;;;;;;;3.53;1.15;;;16.80;99.90;;;;;;5052535;28;25073;-72
2022/09/02 03:20:07;;;;;;;1.85;0.90;;;16.80;99.90;;;;;;5065179;28;25054;-70
2022/09/02 03:22:34;;;;;;;4.30;1.30;;;16.80;99.90;;;;;;5048893;28;25070;-71
2022/09/02 03:25:00;;;;;;;2.38;0.98;;;16.80;99.90;;;;;;5059833;28;25068;-73
2022/09/02 03:27:26;;;;;;;4.82;1.45;;;16.80;99.90;;;;;;5052985;28;25127;-71
2022/09/02 03:29:51;;;;;;;2.88;1.20;;;16.80;99.90;;;;;;5051248;28;25051;-72
2022/09/02 03:32:17;;;;;;;1.80;0.90;;;16.70;99.90;;;;;;5051111;28;25073;-71
2022/09/02 03:34:43;;;;;;;5.18;1.10;;;16.70;99.90;;;;;;5059560;28;25069;-71
2022/09/02 03:37:09;;;;;;;0.77;0.75;;;16.70;99.90;;;;;;5057232;28;25076;-72
2022/09/02 03:39:37;;;;;;;1.67;1.00;;;16.70;99.90;;;;;;5057721;28;25065;-71
2022/09/02 03:42:03;;;;;;;6.82;1.23;;;16.70;99.90;;;;;;5044651;28;25059;-72
2022/09/02 03:44:28;;;;;;;1.38;0.85;;;16.60;99.90;;;;;;5055350;28;25051;-71
2022/09/02 03:46:54;;;;;;;3.75;1.33;;;16.60;99.90;;;;;;5055849;28;25081;-71
2022/09/02 03:49:19;;;;;;;5.15;1.10;;;16.70;99.90;;;;;;5049182;28;25076;-70
2022/09/02 03:51:45;;;;;;;2.63;0.80;;;16.70;99.90;;;;;;5055072;28;25121;-70
2022/09/02 03:54:11;;;;;;;8.32;1.05;;;16.70;99.90;;;;;;5065549;28;25142;-71
2022/09/02 03:56:36;;;;;;;3.42;0.98;;;16.60;99.90;;;;;;5058825;28;25065;-70
2022/09/02 03:59:02;;;;;;;2.13;1.00;;;16.70;99.90;;;;;;5062893;28;25082;-72
2022/09/02 04:01:28;;;;;;;1.85;0.98;;;16.70;99.90;;;;;;5053264;28;25081;-70
2022/09/02 04:03:54;;;;;;;0.98;0.82;;;16.60;99.90;;;;;;5056419;28;25149;-70
2022/09/02 04:06:22;;;;;;;2.47;1.15;;;16.60;99.90;;;;;;5056069;28;25050;-72
2022/09/02 04:08:48;;;;;;;3.28;1.05;;;16.50;99.90;;;;;;5056947;28;25094;-71
2022/09/02 04:11:17;;;;;;;1.90;1.10;;;16.60;99.90;;;;;;5055267;28;25286;-71
2022/09/02 04:13:44;;;;;;;4.13;1.00;;;16.60;99.90;;;;;;5055069;28;25067;-71
2022/09/02 04:16:17;;;;;;;6.75;1.17;;;16.60;99.90;;;;;;5052248;28;25059;-71
2022/09/02 04:18:43;;;;;;;2.65;0.90;;;16.50;99.90;;;;;;5055988;28;25157;-73
2022/09/02 04:21:08;;;;;;;1.20;1.00;;;16.50;99.90;;;;;;5063505;28;25315;-72
2022/09/02 04:23:34;;;;;;;2.40;1.23;;;16.50;99.90;;;;;;5057879;28;25080;-72
2022/09/02 04:26:10;;;;;;;3.65;0.90;;;16.60;99.90;;;;;;5050537;28;25085;-71
2022/09/02 04:28:37;;;;;;;1.45;0.90;;;16.50;99.90;;;;;;5056769;28;25054;-71
2022/09/02 04:31:07;;;;;;;1.85;0.98;;;16.40;99.90;;;;;;5054734;28;25149;-71
2022/09/02 04:33:33;;;;;;;4.03;1.20;;;16.30;99.90;;;;;;5054090;28;25075;-71
2022/09/02 04:35:59;;;;;;;4.50;1.50;;;16.40;99.90;;;;;;5053624;28;25062;-73
2022/09/02 04:38:24;;;;;;;3.17;0.90;;;16.40;99.90;;;;;;5056150;28;25053;-73
2022/09/02 04:40:50;;;;;;;3.20;1.20;;;16.50;99.90;;;;;;5046558;28;25093;-74
2022/09/02 04:43:16;;;;;;;1.77;1.15;;;16.40;99.90;;;;;;5058789;28;25053;-71
2022/09/02 04:45:44;;;;;;;1.35;1.15;;;16.40;99.90;;;;;;5054770;28;25104;-72
2022/09/02 04:48:10;;;;;;;1.83;0.90;;;16.40;99.90;;;;;;5051493;28;25055;-70
2022/09/02 04:50:40;;;;;;;2.00;1.10;;;16.30;99.90;;;;;;5062019;28;25073;-71
2022/09/02 04:53:06;;;;;;;1.90;1.10;;;16.30;99.90;;;;;;5056669;28;25098;-72
2022/09/02 04:55:32;;;;;;;2.47;1.30;;;16.30;99.90;;;;;;5059445;28;25149;-71
2022/09/02 04:57:58;;;;;;;2.65;1.50;;;16.30;99.90;;;;;;5062311;28;25080;-71
2022/09/02 05:00:24;;;;;;;5.20;1.30;;;16.30;99.90;;;;;;5062846;28;25101;-72
2022/09/02 05:02:52;;;;;;;6.05;1.50;;;16.30;99.90;;;;;;5063580;28;25085;-71
2022/09/02 05:05:18;;;;;;;4.30;1.10;;;16.30;99.90;;;;;;5061744;28;25070;-73
2022/09/02 05:07:43;;;;;;;5.97;1.10;;;16.20;99.90;;;;;;5072142;28;25133;-73
2022/09/02 05:10:12;;;;;;;3.10;1.00;;;16.30;99.90;;;;;;5062433;28;25073;-73
2022/09/02 05:12:39;;;;;;;2.35;1.20;;;16.30;99.90;;;;;;5055817;28;25162;-74
2022/09/02 05:15:05;;;;;;;4.47;1.48;;;16.40;99.90;;;;;;5061335;28;25094;-73
2022/09/02 05:17:31;;;;;;;3.17;1.08;;;16.40;99.90;;;;;;5051778;28;25075;-73
2022/09/02 05:19:57;;;;;;;2.50;1.20;;;16.30;99.90;;;;;;5059115;28;25071;-74
2022/09/02 05:22:24;;;;;;;3.72;1.38;;;16.30;99.90;;;;;;5054517;28;25105;-72
2022/09/02 05:24:50;;;;;;;2.88;1.40;;;16.30;99.90;;;;;;5051428;28;25076;-72
2022/09/02 05:27:16;;;;;;;1.20;0.90;;;16.30;99.90;;;;;;5057793;28;25073;-72
2022/09/02 05:29:42;;;;;;;1.65;1.05;;;16.30;99.90;;;;;;5060702;28;25095;-72
2022/09/02 05:32:08;;;;;;;5.13;1.52;;;16.40;99.90;;;;;;5058229;28;25063;-72
2022/09/02 05:34:35;;;;;;;5.05;1.40;;;16.50;99.90;;;;;;5072458;28;25077;-73
2022/09/02 05:37:02;;;;;;;1.88;1.35;;;16.40;99.90;;;;;;5071170;28;25062;-75
2022/09/02 05:39:28;;;;;;;6.05;1.50;;;16.30;99.90;;;;;;5087381;28;25093;-74
2022/09/02 05:41:54;;;;;;;4.28;1.30;;;16.20;99.90;;;;;;5089336;28;25076;-73
2022/09/02 05:44:20;;;;;;;4.88;1.42;;;16.30;99.90;;;;;;5072055;28;25096;-73
2022/09/02 05:46:45;;;;;;;4.78;1.48;;;16.30;99.90;;;;;;5069088;28;25155;-72
2022/09/02 05:49:16;;;;;;;1.90;1.27;;;16.20;99.90;;;;;;5060588;28;25078;-73
2022/09/02 05:51:47;;;;;;;4.90;0.95;;;16.20;99.90;;;;;;5065951;28;25105;-73
2022/09/02 05:54:23;;;;;;;1.63;1.35;;;16.30;99.90;;;;;;5060759;28;25152;-73
2022/09/02 05:56:54;;;;;;;1.98;1.20;;;16.40;99.90;;;;;;5056300;28;25067;-73
2022/09/02 05:59:25;;;;;;;6.85;1.77;;;16.40;99.90;;;;;;5054398;28;25084;-73
2022/09/02 06:01:52;;;;;;;1.92;1.20;;;16.30;99.90;;;;;;5064972;28;25133;-74
2022/09/02 06:04:18;;;;;;;5.43;1.95;;;16.30;99.90;;;;;;5055277;28;25108;-72
2022/09/02 06:06:43;;;;;;;4.78;1.50;;;16.30;99.90;;;;;;5064327;28;25091;-72
2022/09/02 06:09:13;;;;;;;3.70;1.50;;;16.30;99.90;;;;;;5054553;28;25078;-74
2022/09/02 06:11:44;;;;;;;2.10;1.20;;;16.30;99.90;;;;;;5055686;28;25137;-74
2022/09/02 06:14:12;;;;;;;4.78;1.45;;;16.40;99.90;;;;;;5064966;28;25064;-72
2022/09/02 06:16:39;;;;;;;4.18;1.55;;;16.40;99.90;;;;;;5066366;28;25144;-73
2022/09/02 06:19:05;;;;;;;1.63;1.27;;;16.40;99.90;;;;;;5059680;28;25075;-73
2022/09/02 06:21:32;;;;;;;7.32;1.70;;;16.40;99.90;;;;;;5071289;28;25068;-73
2022/09/02 06:23:58;;;;;;;1.50;1.40;;;16.40;99.90;;;;;;5068845;28;25072;-75
2022/09/02 06:26:24;;;;;;;8.00;1.33;;;16.40;99.90;;;;;;5068798;28;25099;-75
2022/09/02 06:28:50;;;;;;;4.25;1.85;;;16.50;99.90;;;;;;5058310;28;25099;-73
2022/09/02 06:31:18;;;;;;;4.68;1.40;;;16.50;99.90;;;;;;5086639;28;25055;-73
2022/09/02 06:33:46;;;;;;;3.38;1.73;;;16.60;99.90;;;;;;5079047;28;25100;-76
2022/09/02 06:36:14;;;;;;;3.28;1.30;;;16.70;99.90;;;;;;5088389;28;25100;-74
2022/09/02 06:38:42;;;;;;;2.47;1.73;;;16.90;99.90;;;;;;5083233;28;25128;-73
2022/09/02 06:41:11;;;;;;;8.80;1.80;;;17.00;99.90;;;;;;5071346;28;25052;-76
2022/09/02 06:43:36;;;;;;;1.48;1.38;;;17.00;99.90;;;;;;5068055;28;25057;-74
2022/09/02 06:46:02;;;;;;;4.53;1.98;;;16.90;99.90;;;;;;5061045;28;25091;-73
2022/09/02 06:48:28;;;;;;;5.55;1.90;;;17.00;99.90;;;;;;5057573;28;25145;-72
2022/09/02 06:50:54;;;;;;;3.80;1.48;;;17.00;99.90;;;;;;5067153;28;25062;-74
2022/09/02 06:53:20;;;;;;;2.45;1.42;;;17.10;99.90;;;;;;5058431;28;25064;-74
2022/09/02 06:55:46;;;;;;;1.55;1.40;;;17.20;99.90;;;;;;5054289;28;25066;-74
2022/09/02 06:58:13;;;;;;;5.05;1.55;;;17.30;99.90;;;;;;5059572;28;25062;-74
2022/09/02 07:00:40;;;;;;;6.18;2.00;;;17.20;99.90;;;;;;5063518;28;25145;-74
2022/09/02 07:06:01;;;;;;;5.93;1.98;;;17.20;99.90;;;;;;5053815;28;25083;-73
2022/09/02 07:08:27;;;;;;;5.72;1.80;;;17.20;99.90;;;;;;5051530;28;25070;-74
2022/09/02 07:10:52;;;;;;;15.57;2.53;;;17.30;99.90;;;;;;5062810;28;25161;-75
2022/09/02 07:13:18;;;;;;;3.63;1.70;;;17.40;99.90;;;;;;5057372;28;25073;-75
2022/09/02 07:15:43;;;;;;;5.35;2.55;;;17.40;99.90;;;;;;5048393;28;25063;-73
2022/09/02 07:18:09;;;;;;;5.43;2.20;;;17.30;99.90;;;;;;5053376;28;25063;-76
2022/09/02 07:20:35;;;;;;;3.63;2.00;;;17.30;99.90;;;;;;5054526;28;25086;-76
2022/09/02 07:23:01;;;;;;;3.38;2.13;;;17.50;99.90;;;;;;5054201;28;25111;-73
2022/09/02 07:25:26;;;;;;;9.80;2.50;;;17.70;99.90;;;;;;5058257;28;25059;-73
2022/09/02 07:27:53;;;;;;;2.55;2.15;;;17.70;99.90;;;;;;5052182;28;25067;-74
2022/09/02 07:30:19;;;;;;;2.88;2.05;;;17.70;99.90;;;;;;5055632;28;25153;-75
2022/09/02 07:32:44;;;;;;;18.45;3.85;;;17.80;99.90;;;;;;5056364;28;25084;-74
2022/09/02 07:35:10;;;;;;;7.45;2.20;;;17.90;99.90;;;;;;5060085;28;25104;-73
2022/09/02 07:37:36;;;;;;;3.85;2.28;;;18.00;99.90;;;;;;5057363;28;25081;-75
2022/09/02 07:40:03;;;;;;;7.57;2.30;;;17.90;99.90;;;;;;5059529;28;25107;-75
2022/09/02 07:42:29;;;;;;;7.97;2.50;;;18.00;99.90;;;;;;5059208;28;25073;-74
2022/09/02 07:44:55;;;;;;;4.75;2.17;;;17.90;99.90;;;;;;5060731;28;25070;-74
2022/09/02 07:47:20;;;;;;;8.77;2.42;;;17.90;99.90;;;;;;5051420;28;25101;-74
2022/09/02 07:49:46;;;;;;;5.35;2.42;;;18.20;99.90;;;;;;5049712;28;25102;-74
2022/09/02 07:52:12;;;;;;;11.07;4.78;;;18.30;99.90;;;;;;5059210;28;25086;-73
2022/09/02 07:54:37;;;;;;;7.10;2.80;;;18.40;99.90;;;;;;5054616;28;25103;-73
2022/09/02 07:57:04;;;;;;;11.57;2.75;;;18.40;99.90;;;;;;5049848;28;25062;-76
2022/09/02 07:59:30;;;;;;;4.25;2.40;;;18.40;99.90;;;;;;5045153;28;25059;-75
2022/09/02 08:01:56;;;;;;;8.10;2.30;;;18.60;99.90;;;;;;5052055;28;25071;-74
2022/09/02 08:04:23;;;;;;;7.95;2.53;;;18.70;99.90;;;;;;5055014;28;25149;-75
2022/09/02 08:06:51;;;;;;;10.63;3.17;;;18.80;99.90;;;;;;5061628;28;25093;-74
2022/09/02 08:09:17;;;;;;;6.22;2.65;;;19.00;99.90;;;;;;5061511;28;25077;-73
2022/09/02 08:11:46;;;;;;;7.00;2.83;;;19.30;99.90;;;;;;5062131;28;25054;-74
2022/09/02 08:14:16;;;;;;;9.98;2.67;;;19.50;99.90;;;;;;5056814;28;25056;-76
2022/09/02 08:16:42;;;;;;;7.35;2.30;;;19.70;99.90;;;;;;5067623;28;25067;-74
2022/09/02 08:19:08;;;;;;;6.25;2.50;;;20.00;99.90;;;;;;5060679;28;25051;-74
2022/09/02 08:21:34;;;;;;;5.22;2.25;;;19.80;99.90;;;;;;5064266;28;25213;-74
2022/09/02 08:23:59;;;;;;;4.22;2.15;;;19.90;99.90;;;;;;5050919;28;25075;-74
2022/09/02 08:26:27;;;;;;;4.85;2.50;;;20.20;99.90;;;;;;5062415;28;25063;-73
2022/09/02 08:28:53;;;;;;;8.48;2.63;;;20.00;99.90;;;;;;5052324;28;25053;-74
2022/09/02 08:31:19;;;;;;;5.65;2.30;;;20.10;99.90;;;;;;5066680;28;25083;-74
2022/09/02 08:33:44;;;;;;;5.15;2.50;;;20.20;99.90;;;;;;5061430;28;25060;-74
2022/09/02 08:36:13;;;;;;;6.38;2.95;;;20.30;99.90;;;;;;5079940;28;25078;-74
2022/09/02 08:38:40;;;;;;;10.35;4.18;;;20.80;99.90;;;;;;5071989;28;25144;-73
2022/09/02 08:41:24;;;;;;;10.13;2.65;;;20.70;99.90;;;;;;5061663;28;25061;-73
2022/09/02 08:43:56;;;;;;;10.90;3.13;;;20.90;99.90;;;;;;5063189;28;25044;-74
2022/09/02 08:46:25;;;;;;;7.18;2.85;;;21.20;99.90;;;;;;5077080;28;25098;-74
2022/09/02 08:49:07;;;;;;;4.78;2.78;;;21.20;99.90;;;;;;5071291;28;25072;-74
2022/09/02 08:51:50;;;;;;;5.28;2.83;;;21.10;99.90;;;;;;5070172;28;25051;-75
2022/09/02 08:54:22;;;;;;;4.82;2.70;;;21.20;99.90;;;;;;5062964;28;25083;-74
2022/09/02 08:56:50;;;;;;;10.45;3.33;;;21.40;99.90;;;;;;5060809;28;25100;-74
2022/09/02 08:59:18;;;;;;;6.95;2.97;;;21.40;99.90;;;;;;5060903;28;25059;-73
2022/09/02 09:01:53;;;;;;;8.15;3.05;;;21.30;99.90;;;;;;5062380;28;25045;-74
2022/09/02 09:04:36;;;;;;;12.23;2.95;;;21.40;99.90;;;;;;5054951;28;25063;-74
2022/09/02 09:07:20;;;;;;;;;;;21.50;99.90;;;;;;5059337;28;25075;-75
2022/09/02 09:09:55;;;;;;;4.90;3.03;;;21.30;99.90;;;;;;5069702;28;24076;-73
2022/09/02 09:12:43;;;;;;;5.80;2.72;;;21.40;99.90;;;;;;5053599;28;25156;-73
2022/09/02 09:15:15;;;;;;;11.25;3.08;;;21.50;99.90;;;;;;5072080;28;25094;-75
2022/09/02 09:17:58;;;;;;;6.95;2.83;;;21.50;99.90;;;;;;5056924;28;25070;-73
2022/09/02 09:20:30;;;;;;;6.07;2.60;;;21.60;99.90;;;;;;5048469;28;25056;-73
2022/09/02 09:22:59;;;;;;;5.80;3.33;;;21.60;99.90;;;;;;5055800;28;25054;-73
2022/09/02 09:25:28;;;;;;;9.32;3.40;;;21.60;99.90;;;;;;5058039;28;25072;-74
2022/09/02 09:27:59;;;;;;;4.75;2.50;;;21.90;99.90;;;;;;5063301;28;25096;-74
2022/09/02 09:30:25;;;;;;;6.18;2.97;;;22.60;99.90;;;;;;5066338;28;25129;-73
2022/09/02 09:32:58;;;;;;;12.93;2.95;;;23.00;99.70;;;;;;5062594;28;25396;-72
2022/09/02 09:35:26;;;;;;;8.32;2.90;;;22.90;95.70;;;;;;5060724;28;25111;-72
2022/09/02 09:37:53;;;;;;;5.68;2.70;;;22.00;98.30;;;;;;5050127;28;25055;-72
2022/09/02 09:40:21;;;;;;;9.32;3.70;;;21.60;99.90;;;;;;5052165;28;25060;-73
2022/09/02 09:43:05;;;;;;;7.22;3.70;;;21.40;99.90;;;;;;5071822;28;25168;-72
2022/09/02 09:45:40;;;;;;;8.48;3.75;;;21.40;99.90;;;;;;5063750;28;25057;-73
2022/09/02 09:48:15;;;;;;;8.50;3.58;;;21.40;99.90;;;;;;5047656;28;25067;-73
2022/09/02 09:50:44;;;;;;;6.28;3.00;;;21.40;99.90;;;;;;5064104;28;25134;-74
2022/09/02 09:53:21;;;;;;;8.68;2.95;;;21.60;99.90;;;;;;5057638;28;25098;-74
2022/09/02 09:55:56;;;;;;;10.52;3.55;;;21.90;99.90;;;;;;5047474;28;25074;-74
2022/09/02 09:58:30;;;;;;;11.15;3.20;;;21.80;99.90;;;;;;5067829;28;25089;-73
2022/09/02 10:00:59;;;;;;;8.35;3.30;;;21.90;99.90;;;;;;5060879;28;25061;-72
2022/09/02 10:03:29;;;;;;;7.88;3.80;;;21.90;99.90;;;;;;5059606;28;25076;-70
2022/09/02 10:05:57;;;;;;;10.18;3.42;;;21.90;99.90;;;;;;5060095;28;25067;-71
2022/09/02 10:08:25;;;;;;;11.52;2.85;;;21.80;99.90;;;;;;5056549;28;25091;-74
2022/09/02 10:11:04;;;;;;;9.48;3.47;;;21.90;99.90;;;;;;5059972;28;25165;-70
2022/09/02 10:13:32;;;;;;;4.65;2.88;;;22.20;99.90;;;;;;5051157;28;25073;-73
2022/09/02 10:16:20;;;;;;;9.82;3.45;;;22.30;99.90;;;;;;5076009;28;25042;-73
2022/09/02 10:18:53;;;;;;;6.97;3.70;;;22.40;99.90;;;;;;5068547;28;25057;-72
2022/09/02 10:21:50;;;;;;;6.15;3.60;;;22.40;99.90;;;;;;5070251;28;25048;-72
2022/09/02 10:24:32;;;;;;;5.75;2.97;;;22.30;99.90;;;;;;5070905;28;25087;-72
2022/09/02 10:27:00;;;;;;;7.18;3.83;;;22.50;99.90;;;;;;5076299;28;25063;-75
2022/09/02 10:29:31;;;;;;;5.10;3.25;;;22.40;99.90;;;;;;5075603;28;25062;-74
2022/09/02 10:32:11;;;;;;;13.57;3.63;;;22.50;99.90;;;;;;5062147;28;25077;-72
2022/09/02 10:35:02;;;;;;;9.02;3.92;;;22.70;99.90;;;;;;5058963;28;25061;-74
2022/09/02 10:37:53;;;;;;;6.40;3.45;;;22.70;98.90;;;;;;5064978;28;25069;-72
2022/09/02 10:40:26;;;;;;;6.60;3.80;;;22.60;99.90;;;;;;5054638;28;25113;-73
2022/09/02 10:43:05;;;;;;;9.52;3.97;;;22.60;99.90;;;;;;5062603;28;25078;-72
2022/09/02 10:45:40;;;;;;;6.57;3.67;;;22.80;99.90;;;;;;5062464;28;25068;-75
2022/09/02 10:48:44;;;;;;;8.57;3.58;;;22.90;99.80;;;;;;5057626;28;25050;-73
2022/09/02 10:51:27;;;;;;;5.65;3.60;;;23.00;98.70;;;;;;5062705;28;25085;-73
2022/09/02 10:54:22;;;;;;;7.40;3.35;;;23.20;96.50;;;;;;5079725;28;25066;-73
2022/09/02 10:56:56;;;;;;;12.65;3.50;;;23.20;94.60;;;;;;5080721;28;25146;-75
2022/09/02 10:59:32;;;;;;;11.10;3.53;;;23.30;97.90;;;;;;5076609;28;25150;-74
2022/09/02 11:02:22;;;;;;;10.52;3.85;;;23.50;95.70;;;;;;5088890;28;25046;-75
2022/09/02 11:05:24;;;;;;;10.38;4.15;;;23.70;92.00;;;;;;5081981;28;25070;-71
2022/09/02 11:08:13;;;;;;;10.97;3.13;;;23.80;73.90;;;;;;5062764;28;25103;-73
2022/09/02 11:11:07;;;;;;;11.25;4.30;;;24.30;80.90;;;;;;5065830;28;25099;-74
2022/09/02 11:13:48;;;;;;;7.50;3.65;;;24.60;67.30;;;;;;5070482;28;25069;-72
2022/09/02 11:16:23;;;;;;;8.88;4.07;;;24.90;53.50;;;;;;5059579;28;25066;-73
2022/09/02 11:19:04;;;;;;;5.75;3.03;;;25.00;43.10;;;;;;5062115;28;25085;-73
2022/09/02 11:21:55;;;;;;;7.70;3.72;;;25.20;39.50;;;;;;5063797;28;25144;-74
2022/09/02 11:24:42;;;;;;;9.23;3.45;;;25.50;28.40;;;;;;5057470;28;25090;-71
2022/09/02 11:27:23;;;;;;;9.52;3.95;;;25.60;22.10;;;;;;5063072;28;25062;-75
2022/09/02 11:30:05;;;;;;;9.02;3.70;;;25.70;13.70;;;;;;5072413;28;25057;-76
2022/09/02 11:32:37;;;;;;;14.25;3.45;;;25.40;13.10;;;;;;5063535;28;25067;-73
2022/09/02 11:35:08;;;;;;;5.07;3.25;;;25.40;19.40;;;;;;5056567;28;25062;-75
2022/09/02 11:37:38;;;;;;;5.63;2.95;;;25.70;6.50;;;;;;5071729;28;25164;-72
2022/09/02 11:40:08;;;;;;;4.78;2.63;;;25.70;1.00;;;;;;5063655;28;25101;-72
2022/09/02 11:43:00;;;;;;;7.40;2.60;;;25.90;1.00;;;;;;5060225;28;25069;-72
2022/09/02 11:46:14;;;;;;;5.03;3.47;;;26.40;1.00;;;;;;5061662;28;25079;-74
2022/09/02 11:48:58;;;;;;;5.70;2.35;;;26.40;1.00;;;;;;5017008;28;25080;-74
2022/09/02 11:51:53;;;;;;;6.35;2.90;;;26.40;1.00;;;;;;5048341;28;25102;-74
2022/09/02 11:54:21;;;;;;;5.38;2.17;;;27.10;1.00;;;;;;5054740;28;25072;-75
2022/09/02 11:56:55;;;;;;;5.72;2.75;;;27.70;1.00;;;;;;5059079;28;25081;-73
2022/09/02 11:59:50;;;;;;;3.45;2.45;;;28.00;1.00;;;;;;5058776;28;25059;-75
2022/09/02 12:02:36;;;;;;;7.07;3.33;;;28.10;1.00;;;;;;5055460;28;25104;-74
2022/09/02 12:05:30;;;;;;;9.32;2.53;;;27.60;1.00;;;;;;5056669;28;25111;-72
2022/09/02 12:07:58;;;;;;;6.70;2.35;;;28.20;1.00;;;;;;5060263;28;25061;-74
2022/09/02 12:10:46;;;;;;;5.20;1.95;;;29.00;1.00;;;;;;5058731;28;25047;-74
2022/09/02 12:13:47;;;;;;;3.65;2.75;;;29.50;99.90;;;;;;5064607;28;26202;-75
2022/09/02 12:16:19;;;;;;;4.32;1.95;;;29.80;99.90;;;;;;5052050;28;25135;-73
2022/09/02 12:19:07;;;;;;;7.47;2.78;;;29.70;99.90;;;;;;5062636;28;25080;-73
2022/09/02 12:21:34;;;;;;;8.52;2.30;;;29.40;99.90;;;;;;5068488;28;25090;-73
2022/09/02 12:23:59;;;;;;;5.05;1.77;;;29.00;99.90;;;;;;5067316;28;25052;-75
2022/09/02 12:26:34;;;;;;;5.50;2.10;;;28.10;99.90;;;;;;5060571;28;25145;-74
2022/09/02 12:29:18;;;;;;;8.52;2.40;;;28.10;99.90;;;;;;5066528;28;25060;-75
2022/09/02 12:31:49;;;;;;;9.93;2.55;;;28.40;99.90;;;;;;5051394;28;25095;-73
2022/09/02 12:34:45;;;;;;;5.78;2.40;;;29.00;99.90;;;;;;5065332;28;25071;-73
2022/09/02 12:37:49;;;;;;;6.18;2.22;;;29.30;99.90;;;;;;5051275;28;25075;-76
2022/09/02 12:40:21;;;;;;;11.77;3.25;;;29.30;99.90;;;;;;5059274;28;25066;-75
2022/09/02 12:42:47;;;;;;;4.88;2.80;;;29.50;99.90;;;;;;5052761;28;25054;-72
2022/09/02 12:45:22;;;;;;;6.43;3.10;;;29.90;99.90;;;;;;5058350;28;25078;-76
2022/09/02 12:48:15;;;;;;;4.85;3.03;;;29.80;99.90;;;;;;5056639;28;25085;-74
2022/09/02 12:50:57;;;;;;;8.55;3.60;;;29.80;99.90;;;;;;5066183;28;25067;-74
2022/09/02 12:53:22;;;;;;;9.93;3.53;;;28.90;99.90;;;;;;5076099;28;25067;-73
2022/09/02 12:56:14;;;;;;;10.95;4.55;;;28.60;99.90;;;;;;5066882;28;25144;-73
2022/09/02 12:58:50;;;;;;;4.82;2.80;;;28.70;99.90;;;;;;5047149;28;25058;-75
2022/09/02 13:01:22;;;;;;;6.78;3.13;;;29.10;99.90;;;;;;5053903;28;25137;-75
2022/09/02 13:03:56;;;;;;;6.35;3.15;;;28.90;99.90;;;;;;5057737;28;25059;-72
2022/09/02 13:06:35;;;;;;;7.40;3.70;;;28.70;99.90;;;;;;5062565;28;25066;-74